Time;durP1;ratioP1;P1;durP2;ratioP2;P2;SDS_P1;SDS_P2;PMS_P1;PMS_P2;Temp;Humidity;BMP_temperature;BMP_pressure;BME280_temperature;BME280_humidity;BME280_pressure;Samples;Min_cycle;Max_cycle;Signal;HPM_P1;HPM_P2
2022/04/03 00:00:31;;;;;;;11.75;8.82;;;;;;;2.42;78.28;100042.06;1088736;54;20026;-83
2022/04/03 00:01:36;;;;;;;12.07;8.98;;;;;;;2.39;78.10;100054.59;1088762;54;20026;-83
2022/04/03 00:02:38;;;;;;;12.00;8.30;;;;;;;2.38;78.23;100050.25;1088705;54;20029;-86
2022/04/03 00:03:48;;;;;;;11.40;7.68;;;;;;;2.35;78.21;100048.66;1088718;54;20768;-81
2022/04/03 00:04:50;;;;;;;10.07;7.25;;;;;;;2.39;78.24;100052.84;1111672;39;20683;-83
2022/04/03 00:05:54;;;;;;;11.77;8.15;;;;;;;2.37;78.09;100056.47;1088660;54;20015;-85
2022/04/03 00:25:07;;;;;;;11.88;9.02;;;;;;;1.94;78.51;100063.38;1088416;54;20030;-84
2022/04/03 00:26:12;;;;;;;11.75;8.93;;;;;;;1.97;78.59;100057.06;1088703;54;20007;-84
2022/04/03 00:27:19;;;;;;;13.57;8.70;;;;;;;1.99;78.66;100058.66;1088692;54;20018;-82
2022/04/03 00:28:22;;;;;;;13.57;9.07;;;;;;;2.00;78.66;100064.78;1088768;54;20041;-83
2022/04/03 00:29:28;;;;;;;11.95;9.30;;;;;;;2.00;78.64;100063.00;1088784;54;20014;-84
2022/04/03 00:36:23;;;;;;;10.50;7.78;;;;;;;1.98;78.30;100064.03;1087856;54;20027;-83
2022/04/03 00:37:24;;;;;;;9.65;7.20;;;;;;;1.96;78.06;100058.84;1090155;46;20042;-82
2022/04/03 00:38:34;;;;;;;10.73;8.15;;;;;;;1.96;77.86;100077.31;1093791;39;20633;-82
2022/04/03 00:39:45;;;;;;;11.23;8.00;;;;;;;1.96;77.79;100074.69;1088709;54;20022;-82
2022/04/03 00:40:59;;;;;;;;;;;;;;;1.90;77.51;100071.53;1088854;54;20014;-83
2022/04/03 00:42:37;;;;;;;11.73;7.65;;;;;;;1.89;77.61;100069.84;1088538;54;19923;-82
2022/04/03 00:44:00;;;;;;;10.88;8.00;;;;;;;1.82;77.27;100070.19;1088518;54;20029;-83
2022/04/03 00:45:18;;;;;;;10.52;7.85;;;;;;;1.83;77.17;100073.66;1088476;54;20038;-82
2022/04/03 00:46:29;;;;;;;11.27;8.43;;;;;;;1.86;77.00;100069.06;1088679;54;20043;-81
2022/04/03 00:48:37;;;;;;;12.32;8.52;;;;;;;1.80;76.74;100068.56;1088530;54;20082;-85
2022/04/03 00:49:39;;;;;;;10.98;7.80;;;;;;;1.74;76.66;100072.44;1088731;54;20022;-84
2022/04/03 00:50:43;;;;;;;11.93;8.13;;;;;;;1.75;76.77;100070.63;1088685;54;20023;-83
2022/04/03 00:51:45;;;;;;;10.30;7.55;;;;;;;1.67;76.70;100069.28;1088673;54;20023;-84
2022/04/03 00:52:49;;;;;;;12.35;8.35;;;;;;;1.68;77.00;100071.00;1088660;54;20741;-85
2022/04/03 00:53:51;;;;;;;12.40;8.02;;;;;;;1.74;76.91;100074.19;1088731;54;20610;-83
2022/04/03 00:54:55;;;;;;;12.40;7.85;;;;;;;1.66;76.69;100067.59;1088610;54;20019;-83
2022/04/03 00:56:05;;;;;;;11.68;7.68;;;;;;;1.73;76.57;100078.63;1088669;54;20733;-83
2022/04/03 00:57:10;;;;;;;9.45;7.15;;;;;;;1.76;76.80;100077.59;1088663;54;20014;-84
2022/04/03 00:58:17;;;;;;;9.20;7.40;;;;;;;1.77;76.68;100076.66;1088687;54;20022;-82
2022/04/03 00:59:22;;;;;;;10.45;7.65;;;;;;;1.75;76.44;100083.81;1088601;54;20128;-83
2022/04/03 01:00:26;;;;;;;9.30;7.47;;;;;;;1.73;76.40;100083.03;1088600;54;20271;-83
2022/04/03 01:01:30;;;;;;;10.73;7.85;;;;;;;1.72;76.17;100082.22;1107945;46;20034;-83
2022/04/03 01:02:32;;;;;;;10.65;7.47;;;;;;;1.72;76.02;100082.22;1088677;54;20013;-82
2022/04/03 01:03:36;;;;;;;10.80;7.22;;;;;;;1.69;75.99;100080.59;1088663;54;20070;-83
2022/04/03 01:04:40;;;;;;;9.98;7.45;;;;;;;1.70;75.98;100074.38;1088630;54;20015;-83
2022/04/03 01:05:44;;;;;;;9.38;7.22;;;;;;;1.71;76.21;100081.34;1088622;54;20023;-84
2022/04/03 01:06:45;;;;;;;10.95;7.03;;;;;;;1.76;75.96;100080.25;1088644;54;20014;-84
2022/04/03 01:07:50;;;;;;;9.35;6.75;;;;;;;1.75;75.58;100087.28;1088593;54;20948;-84
2022/04/03 01:08:51;;;;;;;9.02;6.65;;;;;;;1.73;75.36;100077.78;1088617;54;20019;-84
2022/04/03 01:09:55;;;;;;;10.80;6.80;;;;;;;1.73;75.45;100080.41;1088620;54;20015;-85
2022/04/03 01:10:57;;;;;;;10.80;7.22;;;;;;;1.70;75.73;100084.91;1088582;54;20026;-84
2022/04/03 01:12:01;;;;;;;11.02;7.25;;;;;;;1.73;75.22;100078.63;1088712;54;20021;-83
2022/04/03 01:13:03;;;;;;;9.73;6.88;;;;;;;1.71;75.16;100089.25;1088531;54;20030;-84
2022/04/03 01:14:10;;;;;;;9.80;7.25;;;;;;;1.74;75.20;100082.09;1103517;31;20778;-83
2022/04/03 01:15:14;;;;;;;9.02;6.45;;;;;;;1.77;75.17;100085.41;1088562;54;20049;-84
2022/04/03 01:16:19;;;;;;;9.98;6.85;;;;;;;1.78;75.08;100084.47;1088568;54;20018;-84
2022/04/03 01:17:20;;;;;;;8.85;7.15;;;;;;;1.76;74.96;100085.50;1088552;54;20034;-84
2022/04/03 01:18:25;;;;;;;9.82;6.65;;;;;;;1.79;75.15;100082.72;1088667;54;20054;-82
2022/04/03 01:19:27;;;;;;;9.52;6.70;;;;;;;1.78;75.21;100081.00;1090152;46;20033;-84
2022/04/03 01:20:31;;;;;;;8.57;6.45;;;;;;;1.82;75.12;100082.50;1088630;54;20057;-83
2022/04/03 01:21:33;;;;;;;8.50;6.47;;;;;;;1.79;75.26;100080.91;1088588;54;20034;-85
2022/04/03 01:22:38;;;;;;;10.30;6.85;;;;;;;1.81;75.24;100086.94;1088532;54;20720;-83
2022/04/03 01:23:40;;;;;;;10.02;6.90;;;;;;;1.86;75.10;100081.41;1088624;54;20018;-82
2022/04/03 01:24:46;;;;;;;9.20;6.65;;;;;;;1.86;75.26;100084.06;1088560;54;20021;-84
2022/04/03 01:25:50;;;;;;;10.52;6.88;;;;;;;1.85;75.01;100085.81;1088613;54;20022;-83
2022/04/03 01:26:55;;;;;;;9.52;7.38;;;;;;;1.84;75.09;100080.66;1088592;54;20042;-84
2022/04/03 01:27:57;;;;;;;10.25;6.88;;;;;;;1.89;75.07;100083.84;1088607;54;20061;-84
2022/04/03 01:29:04;;;;;;;8.45;6.35;;;;;;;1.90;75.03;100080.28;1088671;54;20029;-83
2022/04/03 01:30:07;;;;;;;10.52;6.53;;;;;;;1.90;74.83;100082.09;1088635;54;20043;-83
2022/04/03 01:31:20;;;;;;;8.85;6.65;;;;;;;1.89;75.02;100081.22;1088687;54;20063;-84
2022/04/03 01:32:22;;;;;;;10.90;7.18;;;;;;;1.84;74.83;100083.28;1088705;54;20022;-84
2022/04/03 01:33:36;;;;;;;11.30;7.47;;;;;;;1.85;75.02;100083.19;1088632;54;20247;-84
2022/04/03 01:34:37;;;;;;;10.45;6.35;;;;;;;1.89;75.05;100085.66;1088638;54;20042;-84
2022/04/03 01:35:44;;;;;;;9.05;5.85;;;;;;;1.93;75.03;100087.19;1088674;54;20015;-83
2022/04/03 01:36:47;;;;;;;9.32;6.70;;;;;;;1.93;74.92;100085.38;1088728;54;20019;-83
2022/04/03 01:37:51;;;;;;;9.23;6.68;;;;;;;1.94;75.11;100081.81;1088660;54;20025;-83
2022/04/03 01:38:52;;;;;;;9.82;6.95;;;;;;;1.95;75.14;100083.53;1099380;46;20018;-85
2022/04/03 01:39:56;;;;;;;9.73;6.68;;;;;;;1.97;75.20;100089.56;1090146;46;20019;-83
2022/04/03 01:41:00;;;;;;;9.63;6.80;;;;;;;1.98;75.09;100086.00;1105721;46;20014;-84
2022/04/03 01:42:09;;;;;;;8.13;5.90;;;;;;;1.97;74.86;100092.19;1088605;54;20019;-83
2022/04/03 01:43:11;;;;;;;9.15;6.60;;;;;;;2.01;75.07;100088.44;1088449;54;20038;-83
2022/04/03 01:44:16;;;;;;;9.70;6.60;;;;;;;1.99;74.92;100087.66;1088308;54;20022;-83
2022/04/03 01:45:19;;;;;;;9.02;6.15;;;;;;;2.02;75.10;100084.84;1088595;54;20082;-84
2022/04/03 01:46:23;;;;;;;10.23;6.30;;;;;;;2.02;74.97;100089.28;1088467;54;20034;-83
2022/04/03 01:47:25;;;;;;;9.50;6.97;;;;;;;2.02;74.80;100090.13;1088567;54;20055;-83
2022/04/03 01:48:29;;;;;;;9.80;7.10;;;;;;;2.00;75.04;100091.16;1088829;46;21464;-82
2022/04/03 01:49:31;;;;;;;10.23;6.95;;;;;;;1.99;75.03;100085.03;1088519;54;20030;-83
2022/04/03 01:50:35;;;;;;;10.00;6.55;;;;;;;2.00;75.13;100085.91;1088506;54;20666;-84
2022/04/03 01:51:37;;;;;;;9.35;6.18;;;;;;;2.01;75.07;100090.22;1088544;54;20018;-84
2022/04/03 01:52:41;;;;;;;8.40;6.00;;;;;;;2.03;75.05;100091.00;1089920;46;20019;-84
2022/04/03 01:53:43;;;;;;;9.82;6.25;;;;;;;2.01;75.01;100085.78;1088592;54;20015;-84
2022/04/03 01:54:47;;;;;;;8.20;6.20;;;;;;;2.02;74.93;100090.13;1088560;54;20019;-84
2022/04/03 01:56:01;;;;;;;8.90;6.25;;;;;;;2.02;74.84;100089.28;1088535;54;20022;-83
2022/04/03 01:57:05;;;;;;;9.85;7.00;;;;;;;1.93;74.58;100085.38;1088549;54;20017;-85
2022/04/03 01:58:09;;;;;;;10.02;6.47;;;;;;;1.92;74.77;100085.50;1088488;54;20015;-83
2022/04/03 01:59:13;;;;;;;12.45;7.25;;;;;;;1.91;75.00;100089.91;1088597;54;20041;-83
2022/04/03 02:00:15;;;;;;;8.77;6.00;;;;;;;1.93;74.72;100088.03;1088937;46;20018;-83
2022/04/03 02:01:20;;;;;;;8.30;5.97;;;;;;;1.93;74.79;100085.38;1088600;54;20022;-83
2022/04/03 02:02:22;;;;;;;8.50;6.35;;;;;;;1.88;74.55;100092.72;1088504;54;20025;-82
2022/04/03 02:03:27;;;;;;;9.65;6.00;;;;;;;1.91;74.87;100079.34;1088522;54;20729;-83
2022/04/03 02:04:28;;;;;;;9.88;7.05;;;;;;;1.88;74.55;100092.72;1088586;54;20030;-84
2022/04/03 02:05:35;;;;;;;10.80;6.82;;;;;;;1.89;74.45;100091.75;1088478;54;20034;-83
2022/04/03 02:06:36;;;;;;;12.73;6.75;;;;;;;1.87;74.69;100094.50;1096645;39;20671;-84
2022/04/03 02:07:41;;;;;;;9.57;6.70;;;;;;;1.88;74.49;100084.81;1088965;46;20115;-84
2022/04/03 02:08:43;;;;;;;8.80;6.60;;;;;;;1.92;74.56;100094.25;1089342;46;20031;-83
2022/04/03 02:09:47;;;;;;;8.57;6.47;;;;;;;1.92;74.58;100091.59;1088528;54;20175;-84
2022/04/03 02:10:49;;;;;;;10.50;6.85;;;;;;;1.85;74.13;100091.09;1088504;54;20038;-84
2022/04/03 02:11:57;;;;;;;10.27;6.97;;;;;;;1.85;74.26;100092.91;1088523;54;20017;-83
2022/04/03 02:12:58;;;;;;;9.02;6.53;;;;;;;1.84;74.42;100092.03;1088507;54;20034;-85
2022/04/03 02:14:02;;;;;;;9.27;6.78;;;;;;;1.82;73.89;100098.34;1088537;54;20022;-85
2022/04/03 02:15:05;;;;;;;13.77;7.43;;;;;;;1.79;74.25;100090.63;1088559;54;20026;-83
2022/04/03 02:16:12;;;;;;;8.75;6.63;;;;;;;1.83;74.44;100089.50;1088607;54;20014;-85
2022/04/03 02:17:14;;;;;;;8.25;6.82;;;;;;;1.85;74.34;100095.53;1088364;54;20110;-84
2022/04/03 02:18:18;;;;;;;8.88;6.43;;;;;;;1.84;74.11;100099.09;1119776;39;20772;-82
2022/04/03 02:19:20;;;;;;;8.55;6.82;;;;;;;1.80;73.95;100095.78;1088481;54;20023;-85
2022/04/03 02:20:24;;;;;;;8.75;6.60;;;;;;;1.83;74.04;100095.63;1088429;54;20035;-84
2022/04/03 02:21:26;;;;;;;10.23;6.57;;;;;;;1.80;74.00;100097.56;1088504;54;20018;-83
2022/04/03 02:22:30;;;;;;;8.90;6.68;;;;;;;1.84;73.97;100096.47;1088460;54;20030;-82
2022/04/03 02:23:33;;;;;;;9.23;6.47;;;;;;;1.84;74.03;100099.09;1088279;54;20022;-81
2022/04/03 02:24:37;;;;;;;8.98;6.28;;;;;;;1.85;74.14;100098.16;1088277;54;20025;-82
2022/04/03 02:25:39;;;;;;;9.25;6.40;;;;;;;1.85;73.99;100093.72;1088337;54;20038;-81
2022/04/03 02:26:43;;;;;;;8.32;6.55;;;;;;;1.84;74.14;100101.75;1088369;54;20034;-83
2022/04/03 02:27:49;;;;;;;9.65;6.60;;;;;;;1.84;73.99;100101.75;1088295;54;20030;-82
2022/04/03 02:28:53;;;;;;;10.18;6.45;;;;;;;1.92;74.11;100103.94;1088401;54;20045;-84
2022/04/03 02:29:55;;;;;;;8.15;6.20;;;;;;;1.90;74.00;100105.81;1088331;54;20023;-83
2022/04/03 02:30:59;;;;;;;9.43;5.93;;;;;;;1.86;74.02;100105.97;1088394;54;20725;-80
2022/04/03 02:32:00;;;;;;;9.20;7.18;;;;;;;1.84;73.91;100107.84;1088308;54;20035;-82
2022/04/03 02:33:05;;;;;;;7.80;6.18;;;;;;;1.88;74.04;100103.28;1088287;54;20037;-81
2022/04/03 02:34:07;;;;;;;10.88;7.05;;;;;;;1.88;73.94;100103.28;1088371;54;20145;-81
2022/04/03 02:35:13;;;;;;;9.55;6.72;;;;;;;1.90;74.05;100100.53;1088202;54;20042;-83
2022/04/03 02:36:15;;;;;;;8.43;6.25;;;;;;;1.90;74.03;100106.66;1093898;39;20575;-82
2022/04/03 02:37:19;;;;;;;10.85;7.28;;;;;;;1.87;73.86;100107.69;1088158;54;20022;-82
2022/04/03 02:38:20;;;;;;;8.65;6.68;;;;;;;1.88;74.23;100108.56;1088351;54;20031;-82
2022/04/03 02:39:24;;;;;;;9.50;6.45;;;;;;;1.93;74.16;100108.28;1089246;39;20495;-81
2022/04/03 02:40:26;;;;;;;9.90;6.65;;;;;;;1.96;73.93;100100.19;1088379;54;20053;-82
2022/04/03 02:41:30;;;;;;;8.70;6.43;;;;;;;1.95;73.80;100115.16;1088265;54;20089;-82
2022/04/03 02:42:32;;;;;;;11.43;7.65;;;;;;;1.92;73.84;100104.78;1088282;54;20031;-82
2022/04/03 02:43:38;;;;;;;7.70;6.10;;;;;;;1.91;73.80;100105.72;1088371;54;20034;-82
2022/04/03 02:44:40;;;;;;;8.38;6.65;;;;;;;1.94;73.64;100115.22;1088315;54;20034;-83
2022/04/03 02:45:44;;;;;;;9.40;6.30;;;;;;;1.95;73.71;100117.81;1088194;54;20021;-82
2022/04/03 02:46:46;;;;;;;10.40;7.00;;;;;;;1.86;73.75;100111.25;1088236;54;20019;-84
2022/04/03 02:47:52;;;;;;;9.57;7.13;;;;;;;1.86;74.17;100116.53;1088183;54;20031;-82
2022/04/03 02:48:54;;;;;;;9.63;7.00;;;;;;;1.88;74.30;100116.47;1087921;54;21187;-83
2022/04/03 02:49:58;;;;;;;10.32;7.47;;;;;;;1.86;73.83;100116.53;1088258;54;20049;-82
2022/04/03 02:50:59;;;;;;;9.57;6.72;;;;;;;1.91;73.99;100113.63;1088225;54;20019;-82
2022/04/03 02:52:04;;;;;;;9.23;7.22;;;;;;;1.88;73.96;100119.09;1088395;54;20039;-82
2022/04/03 02:53:11;;;;;;;10.18;7.22;;;;;;;1.83;73.90;100113.22;1088178;54;20038;-83
2022/04/03 02:54:15;;;;;;;8.75;6.65;;;;;;;1.83;74.00;100118.50;1088267;54;20034;-83
2022/04/03 02:55:17;;;;;;;9.07;6.40;;;;;;;1.83;74.19;100118.50;1088344;54;20666;-82
2022/04/03 02:56:22;;;;;;;9.85;6.85;;;;;;;1.81;74.13;100113.31;1088694;54;20125;-81
2022/04/03 02:57:24;;;;;;;9.85;7.22;;;;;;;1.76;74.09;100120.63;1088572;54;20545;-81
2022/04/03 02:58:28;;;;;;;9.43;7.13;;;;;;;1.82;74.26;100114.16;1093461;46;20035;-82
2022/04/03 02:59:32;;;;;;;9.90;7.15;;;;;;;1.71;73.22;100117.41;1088636;54;20042;-83
2022/04/03 03:00:37;;;;;;;10.20;6.80;;;;;;;1.68;73.51;100115.78;1088627;54;20045;-83
2022/04/03 03:01:38;;;;;;;10.48;7.43;;;;;;;1.66;73.76;100119.44;1088647;54;20055;-83
2022/04/03 03:02:42;;;;;;;10.60;6.82;;;;;;;1.63;73.60;100109.09;1094676;39;20500;-81
2022/04/03 03:03:45;;;;;;;10.60;7.25;;;;;;;1.55;73.69;100118.28;1088557;54;20026;-81
2022/04/03 03:04:49;;;;;;;9.43;7.30;;;;;;;1.63;73.75;100117.00;1088645;54;20018;-82
2022/04/03 03:05:53;;;;;;;10.00;7.40;;;;;;;1.63;73.43;100115.19;1088645;54;20026;-83
2022/04/03 03:06:55;;;;;;;11.20;7.78;;;;;;;1.61;73.49;100116.22;1093150;39;20606;-83
2022/04/03 03:08:01;;;;;;;9.73;6.95;;;;;;;1.61;73.63;100117.06;1088986;46;20027;-82
2022/04/03 03:09:02;;;;;;;8.60;6.78;;;;;;;1.66;73.65;100116.78;1088765;54;20023;-84
2022/04/03 03:10:07;;;;;;;10.23;7.05;;;;;;;1.62;73.52;100116.13;1088756;54;20030;-84
2022/04/03 03:11:10;;;;;;;10.32;6.95;;;;;;;1.63;73.49;100119.63;1088763;54;20026;-83
2022/04/03 03:12:14;;;;;;;10.00;7.35;;;;;;;1.59;73.26;100118.06;1088733;54;20029;-84
2022/04/03 03:13:16;;;;;;;10.75;6.85;;;;;;;1.59;73.20;100118.94;1088748;54;20008;-84
2022/04/03 03:14:21;;;;;;;10.10;6.85;;;;;;;1.60;73.09;100111.88;1088684;54;20034;-82
2022/04/03 03:15:25;;;;;;;9.45;6.40;;;;;;;1.61;73.37;100114.41;1098260;46;20063;-82
2022/04/03 03:16:30;;;;;;;9.68;6.90;;;;;;;1.61;73.04;100114.41;1088627;54;20030;-83
2022/04/03 03:17:31;;;;;;;10.85;6.63;;;;;;;1.62;73.20;100110.00;1088563;54;20049;-84
2022/04/03 03:18:36;;;;;;;10.05;7.05;;;;;;;1.57;72.79;100112.91;1088503;54;20041;-81
2022/04/03 03:19:38;;;;;;;8.85;6.50;;;;;;;1.52;72.86;100113.16;1088585;54;20038;-82
2022/04/03 03:20:42;;;;;;;8.45;5.93;;;;;;;1.51;73.00;100115.91;1088576;54;20039;-81
2022/04/03 03:21:44;;;;;;;11.13;6.50;;;;;;;1.43;73.02;100118.94;1088648;54;20022;-82
2022/04/03 03:22:48;;;;;;;9.13;6.28;;;;;;;1.46;73.11;100115.28;1088560;54;20061;-83
2022/04/03 03:23:49;;;;;;;9.50;6.10;;;;;;;1.39;72.74;100118.25;1088560;54;20121;-83
2022/04/03 03:24:54;;;;;;;11.77;7.47;;;;;;;1.36;72.86;100118.41;1088593;54;20035;-82
2022/04/03 03:25:56;;;;;;;8.48;5.75;;;;;;;1.39;73.06;100120.03;1088414;54;20034;-83
2022/04/03 03:27:00;;;;;;;10.07;7.00;;;;;;;1.38;73.07;100123.59;1088559;54;20038;-82
2022/04/03 03:28:01;;;;;;;8.25;6.05;;;;;;;1.35;72.97;100123.78;1088545;54;20015;-82
2022/04/03 03:29:06;;;;;;;8.50;6.13;;;;;;;1.36;72.85;100122.84;1088570;54;20588;-82
2022/04/03 03:30:09;;;;;;;8.15;5.47;;;;;;;1.37;72.87;100128.03;1088561;54;20041;-83
2022/04/03 03:31:16;;;;;;;10.57;6.35;;;;;;;1.29;72.93;100127.59;1088610;54;20643;-82
2022/04/03 03:32:18;;;;;;;9.25;6.25;;;;;;;1.30;73.14;100129.31;1088410;54;20037;-82
2022/04/03 03:33:22;;;;;;;8.82;5.88;;;;;;;1.30;72.96;100120.53;1088547;54;20029;-82
2022/04/03 03:34:23;;;;;;;8.68;6.07;;;;;;;1.35;73.16;100127.25;1088586;54;20596;-82
2022/04/03 03:35:28;;;;;;;9.00;6.18;;;;;;;1.39;72.94;100120.91;1088478;54;20041;-82
2022/04/03 03:36:32;;;;;;;9.63;6.05;;;;;;;1.36;72.93;100123.69;1088524;54;20034;-82
2022/04/03 03:37:34;;;;;;;8.07;5.80;;;;;;;1.38;73.10;100120.97;1088435;54;20082;-81
2022/04/03 03:38:38;;;;;;;8.20;5.90;;;;;;;1.39;72.97;100125.31;1088528;54;20019;-82
2022/04/03 03:39:40;;;;;;;9.05;5.45;;;;;;;1.37;73.17;100120.13;1088487;54;20030;-82
2022/04/03 03:40:44;;;;;;;8.02;5.82;;;;;;;1.31;72.76;100128.38;1088387;54;20644;-82
2022/04/03 03:41:46;;;;;;;9.07;5.90;;;;;;;1.32;72.81;100127.44;1088498;54;20024;-81
2022/04/03 03:42:50;;;;;;;8.80;5.90;;;;;;;1.32;73.14;100131.84;1088628;54;20071;-82
2022/04/03 03:43:52;;;;;;;8.45;5.40;;;;;;;1.32;72.90;100135.34;1088538;54;20041;-81
2022/04/03 03:44:56;;;;;;;9.02;5.70;;;;;;;1.31;72.88;100124.88;1088600;54;20030;-82
2022/04/03 03:45:57;;;;;;;8.27;5.55;;;;;;;1.33;73.01;100137.03;1088555;54;20038;-81
2022/04/03 03:47:04;;;;;;;7.97;5.72;;;;;;;1.30;72.35;100136.34;1088474;54;20690;-83
2022/04/03 03:48:08;;;;;;;9.88;6.47;;;;;;;1.26;72.75;100133.03;1088533;54;20725;-83
2022/04/03 03:49:14;;;;;;;7.93;5.70;;;;;;;1.28;72.79;100133.78;1088376;54;20030;-84
2022/04/03 03:50:16;;;;;;;9.30;6.50;;;;;;;1.31;72.88;100125.75;1088541;54;20151;-82
2022/04/03 03:51:20;;;;;;;9.32;5.70;;;;;;;1.37;72.58;100133.28;1094173;39;20783;-84
2022/04/03 03:52:22;;;;;;;8.50;5.75;;;;;;;1.28;72.66;100136.44;1088527;54;20038;-84
2022/04/03 03:53:26;;;;;;;9.60;6.07;;;;;;;1.24;72.53;100130.47;1088511;54;20136;-85
2022/04/03 03:54:28;;;;;;;7.25;5.18;;;;;;;1.33;72.67;100131.75;1088462;54;20023;-82
2022/04/03 03:55:32;;;;;;;8.18;5.72;;;;;;;1.34;72.74;100135.25;1088449;54;20025;-82
2022/04/03 03:56:34;;;;;;;8.13;5.35;;;;;;;1.32;72.67;100130.06;1088598;54;20031;-84
2022/04/03 03:57:38;;;;;;;8.35;5.70;;;;;;;1.35;72.78;100143.06;1088503;54;20034;-82
2022/04/03 03:58:40;;;;;;;8.27;4.95;;;;;;;1.45;72.80;100139.91;1088706;54;20026;-83
2022/04/03 03:59:50;;;;;;;6.90;4.75;;;;;;;1.51;72.59;100137.81;1088720;54;20090;-84
2022/04/03 04:00:54;;;;;;;6.97;4.40;;;;;;;1.55;72.45;100144.63;1088472;54;20026;-82
2022/04/03 04:01:56;;;;;;;7.85;4.70;;;;;;;1.52;72.18;100138.66;1088539;54;20651;-82
2022/04/03 04:03:02;;;;;;;7.43;4.70;;;;;;;1.54;72.27;100140.28;1088557;54;20086;-82
2022/04/03 04:04:04;;;;;;;7.07;4.70;;;;;;;1.56;72.14;100143.66;1088453;54;20038;-82
2022/04/03 04:05:09;;;;;;;6.53;4.47;;;;;;;1.58;71.94;100140.97;1088465;54;20018;-82
2022/04/03 04:06:11;;;;;;;8.20;5.10;;;;;;;1.52;71.90;100143.91;1088484;54;20038;-82
2022/04/03 04:07:20;;;;;;;8.30;4.82;;;;;;;1.43;71.57;100141.78;1088209;54;20034;-82
2022/04/03 04:08:21;;;;;;;7.30;5.25;;;;;;;1.44;71.98;100139.09;1088481;54;20549;-83
2022/04/03 04:09:26;;;;;;;7.07;4.85;;;;;;;1.49;71.98;100141.47;1089696;46;20037;-82
2022/04/03 04:10:27;;;;;;;8.05;5.20;;;;;;;1.41;71.86;100141.88;1092520;39;20531;-81
2022/04/03 04:11:32;;;;;;;7.53;4.60;;;;;;;1.45;71.87;100139.91;1088557;54;20030;-82
2022/04/03 04:12:34;;;;;;;6.38;4.30;;;;;;;1.48;72.04;100147.66;1091428;39;20461;-83
2022/04/03 04:13:38;;;;;;;8.43;4.78;;;;;;;1.46;71.74;100142.50;1088583;47;20067;-81
2022/04/03 04:14:40;;;;;;;6.68;4.65;;;;;;;1.42;71.68;100145.38;1088633;54;20022;-82
2022/04/03 04:15:44;;;;;;;7.18;4.72;;;;;;;1.43;71.59;100145.28;1088684;54;20015;-82
2022/04/03 04:16:46;;;;;;;8.70;5.30;;;;;;;1.43;71.78;100147.91;1088722;54;20038;-82
2022/04/03 04:18:05;;;;;;;7.25;4.47;;;;;;;1.45;71.72;100146.06;1088724;54;20037;-82
2022/04/03 04:19:06;;;;;;;7.35;4.47;;;;;;;1.50;71.73;100156.34;1088732;54;20018;-81
2022/04/03 04:20:21;;;;;;;7.75;4.70;;;;;;;1.54;71.55;100150.81;1088718;54;20074;-82
2022/04/03 04:21:23;;;;;;;6.68;4.22;;;;;;;1.58;71.64;100154.13;1102989;39;20374;-84
2022/04/03 04:22:27;;;;;;;8.00;4.47;;;;;;;1.59;71.75;100155.84;1088654;54;20074;-83
2022/04/03 04:23:28;;;;;;;7.50;4.35;;;;;;;1.56;71.67;100153.38;1092523;39;20716;-82
2022/04/03 04:24:32;;;;;;;7.18;4.80;;;;;;;1.52;71.24;100157.09;1088485;54;20031;-81
2022/04/03 04:25:34;;;;;;;7.78;4.50;;;;;;;1.48;71.67;100161.69;1088572;54;20011;-83
2022/04/03 04:26:39;;;;;;;7.47;4.40;;;;;;;1.54;71.70;100164.00;1088531;54;20037;-83
2022/04/03 04:27:41;;;;;;;7.30;5.00;;;;;;;1.56;71.49;100156.00;1089307;31;20710;-84
2022/04/03 04:28:48;;;;;;;7.20;4.18;;;;;;;1.60;71.48;100168.09;1088544;54;20053;-82
2022/04/03 04:29:49;;;;;;;7.18;3.72;;;;;;;1.63;71.58;100162.63;1088648;54;20026;-83
2022/04/03 04:31:01;;;;;;;6.13;4.13;;;;;;;1.64;71.47;100169.59;1088529;54;20533;-83
2022/04/03 04:32:03;;;;;;;6.45;4.10;;;;;;;1.63;71.34;100154.72;1088577;54;20717;-83
2022/04/03 04:33:10;;;;;;;7.47;4.00;;;;;;;1.63;71.19;100161.78;1091660;39;20421;-81
2022/04/03 04:34:11;;;;;;;6.85;4.25;;;;;;;1.70;71.43;100168.41;1088624;54;20071;-82
2022/04/03 04:35:15;;;;;;;6.43;4.60;;;;;;;1.66;71.25;100167.75;1089411;46;20007;-83
2022/04/03 04:36:17;;;;;;;7.60;4.43;;;;;;;1.67;71.00;100161.53;1088599;54;20014;-83
2022/04/03 04:37:21;;;;;;;6.03;4.47;;;;;;;1.68;71.13;100165.00;1088537;54;20014;-84
2022/04/03 04:38:24;;;;;;;6.78;4.65;;;;;;;1.69;71.00;100161.44;1088559;54;20041;-83
2022/04/03 04:39:28;;;;;;;6.43;4.32;;;;;;;1.70;71.09;100169.25;1088530;54;20037;-84
2022/04/03 04:40:31;;;;;;;6.93;4.50;;;;;;;1.71;71.14;100170.13;1088534;54;20015;-83
2022/04/03 04:41:35;;;;;;;5.78;3.92;;;;;;;1.75;70.91;100174.28;1088622;54;20587;-83
2022/04/03 04:42:43;;;;;;;7.25;4.25;;;;;;;1.74;70.98;100169.09;1088565;54;20575;-84
2022/04/03 04:43:48;;;;;;;6.00;4.22;;;;;;;1.69;70.85;100171.97;1088659;54;20014;-84
2022/04/03 04:44:55;;;;;;;7.00;4.32;;;;;;;1.69;70.82;100171.97;1088560;54;20014;-84
2022/04/03 04:45:59;;;;;;;5.63;3.80;;;;;;;1.68;70.77;100176.41;1090206;46;20549;-84
2022/04/03 04:47:01;;;;;;;6.45;4.22;;;;;;;1.74;70.94;100177.00;1088496;54;20826;-83
2022/04/03 04:48:09;;;;;;;6.38;3.90;;;;;;;1.75;70.60;100181.34;1088324;54;20571;-84
2022/04/03 04:49:10;;;;;;;7.40;4.28;;;;;;;1.67;70.89;100174.72;1088531;54;20039;-84
2022/04/03 04:50:18;;;;;;;6.82;4.03;;;;;;;1.62;70.46;100174.09;1087998;54;21390;-82
2022/04/03 04:51:19;;;;;;;8.13;5.00;;;;;;;1.54;70.25;100173.69;1088583;54;20041;-83
2022/04/03 04:52:23;;;;;;;7.45;4.30;;;;;;;1.54;70.62;100185.09;1088471;54;20026;-82
2022/04/03 04:53:25;;;;;;;7.55;4.45;;;;;;;1.52;70.41;100184.31;1088578;54;20010;-82
2022/04/03 04:54:30;;;;;;;6.85;4.00;;;;;;;1.55;70.43;100185.91;1088549;54;20100;-83
2022/04/03 04:55:31;;;;;;;7.07;4.30;;;;;;;1.56;70.51;100182.34;1088542;54;20018;-83
2022/04/03 04:56:36;;;;;;;6.90;4.03;;;;;;;1.58;70.71;100195.44;1088538;54;20025;-83
2022/04/03 04:57:52;;;;;;;6.40;4.15;;;;;;;1.64;70.59;100185.41;1088524;54;20034;-84
2022/04/03 04:58:54;;;;;;;6.50;3.72;;;;;;;1.65;70.34;100187.13;1088623;54;20098;-84
2022/04/03 04:59:58;;;;;;;5.90;3.70;;;;;;;1.65;70.30;100184.50;1088687;54;20026;-85
2022/04/03 05:00:59;;;;;;;6.97;4.40;;;;;;;1.66;70.38;100187.97;1097717;46;20019;-83
2022/04/03 05:02:05;;;;;;;5.40;3.25;;;;;;;1.68;70.38;100186.09;1088627;54;20041;-82
2022/04/03 05:03:09;;;;;;;6.03;3.85;;;;;;;1.71;70.28;100185.94;1095867;46;20741;-83
2022/04/03 05:04:13;;;;;;;5.72;3.50;;;;;;;1.73;70.59;100185.84;1088598;54;20042;-83
2022/04/03 05:05:17;;;;;;;6.30;3.45;;;;;;;1.75;70.40;100186.63;1088573;54;20015;-83
2022/04/03 05:06:26;;;;;;;4.78;3.15;;;;;;;1.79;70.47;100185.53;1088630;54;20055;-84
2022/04/03 05:07:28;;;;;;;6.05;3.47;;;;;;;1.81;70.33;100183.63;1089645;46;20042;-84
2022/04/03 05:08:33;;;;;;;6.47;3.80;;;;;;;1.74;69.92;100191.06;1088562;54;21050;-83
2022/04/03 05:09:35;;;;;;;6.68;3.78;;;;;;;1.70;70.30;100185.06;1088591;46;20014;-83
2022/04/03 05:10:39;;;;;;;5.22;3.53;;;;;;;1.75;70.24;100186.63;1088536;54;20098;-84
2022/04/03 05:11:41;;;;;;;5.43;3.50;;;;;;;1.76;69.95;100183.03;1088583;54;20037;-82
2022/04/03 05:12:46;;;;;;;5.57;3.65;;;;;;;1.76;70.03;100189.16;1088511;54;20603;-83
2022/04/03 05:13:47;;;;;;;6.50;3.40;;;;;;;1.80;70.23;100189.84;1088512;54;20030;-83
2022/04/03 05:14:53;;;;;;;6.32;4.15;;;;;;;1.83;70.01;100190.53;1088768;46;20065;-84
2022/04/03 05:15:54;;;;;;;6.63;3.22;;;;;;;1.80;69.83;100190.69;1088591;54;20030;-83
2022/04/03 05:16:59;;;;;;;5.07;3.42;;;;;;;1.82;70.11;100188.84;1088559;54;20046;-82
2022/04/03 05:18:00;;;;;;;5.28;3.30;;;;;;;1.81;69.81;100183.63;1088450;54;20038;-84
2022/04/03 05:19:07;;;;;;;6.05;3.40;;;;;;;1.81;69.74;100191.53;1088547;54;20034;-84
2022/04/03 05:20:10;;;;;;;5.97;3.42;;;;;;;1.80;69.81;100190.69;1105500;39;20630;-84
2022/04/03 05:21:15;;;;;;;6.05;3.47;;;;;;;1.78;69.84;100192.56;1088586;54;20042;-82
2022/04/03 05:22:16;;;;;;;6.55;3.92;;;;;;;1.74;69.76;100188.41;1088520;54;20019;-82
2022/04/03 05:23:20;;;;;;;6.32;3.78;;;;;;;1.67;69.72;100187.91;1088498;54;20015;-84
2022/04/03 05:24:22;;;;;;;7.53;4.35;;;;;;;1.60;69.61;100189.16;1088551;54;20018;-82
2022/04/03 05:25:26;;;;;;;6.85;3.83;;;;;;;1.63;69.88;100196.88;1088577;54;20037;-83
2022/04/03 05:26:28;;;;;;;6.68;3.85;;;;;;;1.63;70.17;100196.06;1088449;54;20019;-84